Time;durP1;ratioP1;P1;durP2;ratioP2;P2;SDS_P1;SDS_P2;PMS_P1;PMS_P2;Temp;Humidity;BMP_temperature;BMP_pressure;BME280_temperature;BME280_humidity;BME280_pressure;Samples;Min_cycle;Max_cycle;Signal;HPM_P1;HPM_P2
2021/04/11 03:28:10;;;;;;;0.85;0.85;;;18.00;59.80;;;;;;5112455;27;20506;-41
2021/04/11 03:30:38;;;;;;;2.05;0.95;;;18.40;60.00;;;;;;5100578;28;20038;-40
2021/04/11 03:33:06;;;;;;;1.20;1.20;;;18.50;59.90;;;;;;5102729;28;20457;-41
2021/04/11 03:35:34;;;;;;;0.90;0.90;;;18.60;59.70;;;;;;5090178;28;20055;-42
2021/04/11 03:38:00;;;;;;;0.90;0.90;;;18.60;60.30;;;;;;5100424;28;20038;-42
2021/04/11 03:40:27;;;;;;;0.90;0.90;;;18.60;59.50;;;;;;5100487;28;20404;-41
2021/04/11 03:42:58;;;;;;;0.98;0.98;;;18.70;59.50;;;;;;5063235;28;20068;-41
2021/04/11 03:45:23;;;;;;;1.00;1.00;;;18.70;59.40;;;;;;5061167;28;20055;-42
2021/04/11 03:47:52;;;;;;;0.85;0.85;;;18.70;59.40;;;;;;5082267;28;20056;-42
2021/04/11 03:50:28;;;;;;;0.82;0.82;;;18.70;59.40;;;;;;5058915;28;20426;-44
2021/04/11 03:52:59;;;;;;;0.70;0.70;;;18.70;59.20;;;;;;5053788;28;20060;-41
2021/04/11 03:55:26;;;;;;;1.00;1.00;;;18.70;59.10;;;;;;5048350;28;20379;-41
2021/04/11 03:57:54;;;;;;;1.20;1.10;;;18.70;59.00;;;;;;5052029;28;20052;-43
2021/04/11 04:00:30;;;;;;;0.75;0.75;;;18.70;58.90;;;;;;5047002;28;20017;-41
2021/04/11 04:02:57;;;;;;;0.82;0.82;;;18.70;59.10;;;;;;5039173;28;20024;-42
2021/04/11 04:05:24;;;;;;;1.00;1.00;;;18.70;59.00;;;;;;5047347;28;20020;-41
2021/04/11 04:07:57;;;;;;;0.77;0.77;;;18.70;59.00;;;;;;5049079;28;20033;-42
2021/04/11 04:10:28;;;;;;;0.98;0.98;;;18.70;58.90;;;;;;5049984;28;20463;-41
2021/04/11 04:13:11;;;;;;;0.80;0.80;;;18.70;58.70;;;;;;5067603;28;20047;-46
2021/04/11 04:16:03;;;;;;;0.80;0.80;;;18.70;58.70;;;;;;5063902;28;20021;-43
2021/04/11 04:18:49;;;;;;;0.60;0.60;;;18.70;58.60;;;;;;5049596;28;20060;-42
2021/04/11 04:21:38;;;;;;;0.70;0.70;;;18.70;58.80;;;;;;5054446;28;20021;-42
2021/04/11 04:24:26;;;;;;;0.70;0.70;;;18.70;58.70;;;;;;5060719;28;20079;-44
2021/04/11 04:26:52;;;;;;;0.85;0.85;;;18.70;58.70;;;;;;5051918;28;20076;-41
2021/04/11 04:29:38;;;;;;;0.63;0.60;;;18.70;58.60;;;;;;5047912;28;20017;-41
2021/04/11 04:32:10;;;;;;;0.90;0.75;;;18.70;58.60;;;;;;5050964;28;20398;-42
2021/04/11 04:34:54;;;;;;;0.90;0.85;;;18.70;58.50;;;;;;5052785;28;20108;-44
2021/04/11 04:37:53;;;;;;;0.55;0.55;;;18.70;58.50;;;;;;5035045;28;20027;-44
2021/04/11 04:40:37;;;;;;;0.85;0.85;;;18.70;58.50;;;;;;5063014;28;20021;-42
2021/04/11 04:43:06;;;;;;;;;;;18.70;58.40;;;;;;5053806;28;20478;-44
2021/04/11 04:46:02;;;;;;;0.80;0.80;;;18.60;58.70;;;;;;5040542;28;19971;-42
2021/04/11 04:48:34;;;;;;;0.65;0.65;;;18.50;59.20;;;;;;5034578;28;20368;-42
2021/04/11 04:51:16;;;;;;;0.65;0.65;;;18.50;59.30;;;;;;5035473;28;20032;-40
2021/04/11 04:54:15;;;;;;;0.90;0.90;;;18.60;59.10;;;;;;5034427;28;20540;-42
2021/04/11 04:56:52;;;;;;;0.80;0.80;;;18.60;58.90;;;;;;5038355;28;20467;-43
2021/04/11 04:59:28;;;;;;;0.70;0.70;;;18.60;58.90;;;;;;5035760;28;20048;-39
2021/04/11 05:02:06;;;;;;;1.00;1.00;;;18.50;58.90;;;;;;5035298;28;20088;-42
2021/04/11 05:04:32;;;;;;;0.80;0.80;;;18.50;58.70;;;;;;5035488;28;20021;-42
2021/04/11 05:07:25;;;;;;;0.60;0.60;;;18.60;58.70;;;;;;5052511;28;20028;-42
2021/04/11 05:10:01;;;;;;;0.70;0.70;;;18.60;58.70;;;;;;5031352;28;20041;-44
2021/04/11 05:12:40;;;;;;;0.85;0.80;;;18.60;58.70;;;;;;5053304;28;20033;-44
2021/04/11 05:15:14;;;;;;;0.63;0.63;;;18.50;58.60;;;;;;5035177;28;20067;-42
2021/04/11 05:17:42;;;;;;;0.73;0.68;;;18.60;58.60;;;;;;5035572;28;20068;-42
2021/04/11 05:20:13;;;;;;;0.80;0.80;;;18.60;58.50;;;;;;5035655;28;20033;-43
2021/04/11 05:23:10;;;;;;;0.70;0.70;;;18.60;58.40;;;;;;5051380;28;20025;-42
2021/04/11 05:25:39;;;;;;;0.70;0.70;;;18.70;58.20;;;;;;5046985;28;20045;-44
2021/04/11 05:28:42;;;;;;;0.70;0.70;;;18.60;58.20;;;;;;5034836;28;20033;-44
2021/04/11 05:31:12;;;;;;;0.60;0.60;;;18.60;58.20;;;;;;5028676;28;20044;-42
2021/04/11 05:33:37;;;;;;;0.80;0.80;;;18.60;58.20;;;;;;5035390;28;20037;-42
2021/04/11 05:36:12;;;;;;;0.50;0.50;;;18.60;58.20;;;;;;5033020;28;20036;-42
2021/04/11 05:38:44;;;;;;;0.55;0.55;;;18.60;58.00;;;;;;5052755;28;20025;-42
2021/04/11 05:41:13;;;;;;;0.60;0.60;;;18.60;58.00;;;;;;5052279;28;20564;-43
2021/04/11 05:44:18;;;;;;;0.80;0.80;;;18.60;58.10;;;;;;5034872;28;20056;-43
2021/04/11 05:46:50;;;;;;;;;;;18.60;58.10;;;;;;4975380;28;20038;-42
2021/04/11 05:49:18;;;;;;;0.70;0.70;;;18.70;58.00;;;;;;4983839;28;19910;-42
2021/04/11 05:51:51;;;;;;;0.60;0.60;;;18.60;58.00;;;;;;4989306;28;20057;-41
2021/04/11 05:54:28;;;;;;;1.00;0.70;;;18.60;58.20;;;;;;4994444;28;20042;-41
2021/04/11 05:57:02;;;;;;;0.85;0.85;;;18.50;58.10;;;;;;4997586;28;20798;-41
2021/04/11 05:59:43;;;;;;;0.57;0.57;;;18.60;57.90;;;;;;4994474;28;20026;-38
2021/04/11 06:02:18;;;;;;;0.70;0.70;;;18.60;57.90;;;;;;4988728;28;20061;-42
2021/04/11 06:05:00;;;;;;;0.60;0.60;;;18.60;57.90;;;;;;4990348;28;20113;-42
2021/04/11 06:07:40;;;;;;;0.70;0.70;;;18.60;57.90;;;;;;4994144;28;20488;-43
2021/04/11 06:10:13;;;;;;;0.60;0.60;;;18.60;57.80;;;;;;4985616;28;20436;-46
2021/04/11 06:12:47;;;;;;;0.60;0.60;;;18.60;57.80;;;;;;4975509;28;20457;-39
2021/04/11 06:15:24;;;;;;;0.80;0.80;;;18.60;57.70;;;;;;4982009;28;20106;-42
2021/04/11 06:17:51;;;;;;;0.60;0.60;;;18.70;57.40;;;;;;5023403;28;20548;-42
2021/04/11 06:20:16;;;;;;;0.50;0.50;;;18.80;57.10;;;;;;5037022;28;20040;-42
2021/04/11 06:23:17;;;;;;;0.50;0.50;;;18.90;56.90;;;;;;5050080;28;20028;-48
2021/04/11 06:25:52;;;;;;;0.55;0.55;;;18.90;56.80;;;;;;5030175;28;20032;-41
2021/04/11 06:28:25;;;;;;;0.50;0.50;;;19.00;56.70;;;;;;5033923;28;20024;-39
2021/04/11 06:31:03;;;;;;;0.45;0.45;;;19.00;56.80;;;;;;5029163;28;20040;-42
2021/04/11 06:33:36;;;;;;;0.77;0.50;;;18.90;56.70;;;;;;5046771;28;20120;-43
2021/04/11 06:36:04;;;;;;;0.57;0.57;;;18.90;57.30;;;;;;5047913;28;20033;-41
2021/04/11 06:38:35;;;;;;;2.25;0.50;;;18.80;57.00;;;;;;5032197;28;20032;-40
2021/04/11 06:41:06;;;;;;;0.50;0.50;;;18.80;57.10;;;;;;5030344;28;20024;-39
2021/04/11 06:44:13;;;;;;;0.60;0.60;;;18.90;57.00;;;;;;5050140;28;20134;-41
2021/04/11 06:46:59;;;;;;;0.43;0.40;;;18.90;56.80;;;;;;4968467;28;20110;-41
2021/04/11 06:50:02;;;;;;;0.50;0.50;;;18.90;56.80;;;;;;4987255;28;20046;-39
2021/04/11 06:53:12;;;;;;;0.40;0.40;;;19.00;56.80;;;;;;4958172;28;20035;-42
2021/04/11 06:55:59;;;;;;;0.60;0.40;;;19.00;56.60;;;;;;4968153;28;20432;-39
2021/04/11 06:58:45;;;;;;;0.40;0.40;;;19.00;56.60;;;;;;4970097;28;20030;-43
2021/04/11 07:01:41;;;;;;;0.43;0.43;;;19.00;56.70;;;;;;4966121;28;20085;-40
2021/04/11 07:04:13;;;;;;;0.52;0.52;;;19.00;56.60;;;;;;4974062;28;20045;-41
2021/04/11 07:06:49;;;;;;;0.40;0.40;;;19.00;56.60;;;;;;4971908;28;20050;-40
2021/04/11 07:09:52;;;;;;;0.50;0.50;;;19.00;57.30;;;;;;4986258;28;20127;-40
2021/04/11 07:12:23;;;;;;;0.40;0.40;;;19.00;56.70;;;;;;4969513;28;20038;-42
2021/04/11 07:15:04;;;;;;;0.20;0.20;;;19.00;56.80;;;;;;4985242;28;20472;-35
2021/04/11 07:17:56;;;;;;;0.57;0.57;;;18.90;56.90;;;;;;4967169;28;20126;-40
2021/04/11 07:20:54;;;;;;;0.30;0.30;;;18.90;56.90;;;;;;4983993;28;20038;-44
2021/04/11 07:23:47;;;;;;;0.40;0.40;;;18.90;56.90;;;;;;5027554;28;20071;-44
2021/04/11 07:26:25;;;;;;;0.40;0.40;;;19.00;56.90;;;;;;5004441;28;20038;-41
2021/04/11 07:29:27;;;;;;;0.20;0.20;;;19.00;56.80;;;;;;4992259;28;20053;-43
2021/04/11 07:32:18;;;;;;;0.82;0.40;;;18.90;56.90;;;;;;5006257;28;20534;-40
2021/04/11 07:35:08;;;;;;;0.40;0.40;;;18.90;56.90;;;;;;4991917;28;20049;-42
2021/04/11 07:38:00;;;;;;;0.40;0.40;;;19.00;56.90;;;;;;5009260;28;20153;-41
2021/04/11 07:40:44;;;;;;;0.40;0.40;;;18.90;56.80;;;;;;5005946;28;20029;-41
2021/04/11 07:43:32;;;;;;;0.40;0.20;;;18.90;57.00;;;;;;5005999;28;20046;-42
2021/04/11 07:46:32;;;;;;;0.30;0.30;;;18.90;56.90;;;;;;4996489;28;20029;-41
2021/04/11 07:49:22;;;;;;;0.38;0.38;;;19.00;56.80;;;;;;4965347;28;20066;-41
2021/04/11 07:52:11;;;;;;;0.40;0.40;;;19.00;56.80;;;;;;4954991;28;20042;-43
2021/04/11 07:55:06;;;;;;;0.40;0.40;;;19.00;56.70;;;;;;4967372;28;20523;-44
2021/04/11 07:57:43;;;;;;;0.40;0.40;;;18.90;56.80;;;;;;4968637;28;20063;-42
2021/04/11 08:00:26;;;;;;;0.30;0.30;;;18.90;56.70;;;;;;4955024;28;20038;-42
2021/04/11 08:03:01;;;;;;;0.40;0.40;;;19.00;56.70;;;;;;4936836;28;20238;-46
2021/04/11 08:05:35;;;;;;;;;;;19.00;56.80;;;;;;4934947;29;20556;-42
2021/04/11 08:08:23;;;;;;;0.32;0.32;;;19.00;56.70;;;;;;4934766;29;20691;-42
2021/04/11 08:11:14;;;;;;;0.30;0.30;;;18.80;57.00;;;;;;4952249;28;20040;-41
2021/04/11 08:14:17;;;;;;;0.50;0.47;;;18.90;57.00;;;;;;4878007;29;20057;-46
2021/04/11 08:16:48;;;;;;;0.40;0.40;;;18.90;57.00;;;;;;4874279;29;20124;-45
2021/04/11 08:19:48;;;;;;;0.57;0.30;;;18.70;57.40;;;;;;4883758;29;20131;-51
2021/04/11 08:22:13;;;;;;;0.52;0.43;;;18.60;57.70;;;;;;4870012;29;20670;-48
2021/04/11 08:24:48;;;;;;;0.45;0.40;;;18.60;57.70;;;;;;4888162;29;20517;-46
2021/04/11 08:27:32;;;;;;;1.60;0.40;;;18.60;57.80;;;;;;4946587;28;20141;-46
2021/04/11 08:30:08;;;;;;;0.40;0.40;;;18.50;57.90;;;;;;4947944;28;20563;-46
2021/04/11 08:33:01;;;;;;;0.40;0.40;;;18.50;57.90;;;;;;4932067;29;20031;-45
2021/04/11 08:35:50;;;;;;;0.47;0.30;;;18.50;57.80;;;;;;4933459;29;20130;-46
2021/04/11 08:38:21;;;;;;;0.32;0.30;;;18.60;58.00;;;;;;4963487;28;20028;-50
2021/04/11 08:41:04;;;;;;;0.63;0.63;;;18.70;57.70;;;;;;4946153;29;20084;-46
2021/04/11 08:43:54;;;;;;;0.50;0.30;;;18.70;57.80;;;;;;4946288;29;20118;-45
2021/04/11 08:46:44;;;;;;;0.43;0.35;;;18.70;58.40;;;;;;4945133;28;20572;-47
2021/04/11 08:49:12;;;;;;;0.40;0.40;;;18.70;57.80;;;;;;4946569;29;20027;-49
2021/04/11 08:51:54;;;;;;;0.50;0.50;;;18.70;57.90;;;;;;5033106;28;20052;-45
2021/04/11 08:54:38;;;;;;;1.05;0.70;;;18.70;58.60;;;;;;5047721;28;20045;-49
2021/04/11 08:57:22;;;;;;;0.40;0.40;;;18.60;59.00;;;;;;5048182;28;20060;-48
2021/04/11 08:59:55;;;;;;;0.40;0.40;;;18.50;58.40;;;;;;5048348;28;20024;-48
2021/04/11 09:02:40;;;;;;;0.68;0.47;;;18.60;58.90;;;;;;5046858;28;20090;-44
2021/04/11 09:05:37;;;;;;;1.60;0.40;;;18.50;58.70;;;;;;5045871;28;20056;-49
2021/04/11 09:08:26;;;;;;;0.50;0.50;;;18.50;58.80;;;;;;5048277;28;20079;-50
2021/04/11 09:11:06;;;;;;;0.40;0.40;;;18.60;59.40;;;;;;4929784;29;20071;-44
2021/04/11 09:13:50;;;;;;;1.02;0.50;;;18.60;58.70;;;;;;4946515;28;20169;-46
2021/04/11 09:16:20;;;;;;;0.40;0.40;;;18.60;59.30;;;;;;4946141;28;20050;-48
2021/04/11 09:19:00;;;;;;;1.52;0.50;;;18.60;60.00;;;;;;4933006;29;20489;-52
2021/04/11 09:22:04;;;;;;;0.55;0.55;;;18.70;59.20;;;;;;4946070;29;20153;-55
2021/04/11 09:24:34;;;;;;;0.90;0.43;;;18.70;58.50;;;;;;4926290;29;20054;-48
2021/04/11 09:27:00;;;;;;;0.50;0.50;;;18.70;58.70;;;;;;4943048;29;20051;-53
2021/04/11 09:30:03;;;;;;;1.08;0.70;;;18.80;58.30;;;;;;4926576;29;20039;-50
2021/04/11 09:32:56;;;;;;;0.40;0.40;;;18.80;58.20;;;;;;4925236;29;20608;-44
2021/04/11 09:35:50;;;;;;;0.57;0.38;;;18.90;58.00;;;;;;4926761;29;20047;-54
2021/04/11 09:38:24;;;;;;;0.50;0.50;;;18.90;58.10;;;;;;4927582;29;20049;-46
2021/04/11 09:40:59;;;;;;;0.63;0.63;;;18.90;58.10;;;;;;4926545;29;20063;-45
2021/04/11 09:43:51;;;;;;;0.60;0.60;;;18.80;58.30;;;;;;4910798;29;20034;-46
2021/04/11 09:46:22;;;;;;;0.40;0.40;;;18.90;57.60;;;;;;4927393;29;20079;-49
2021/04/11 09:49:03;;;;;;;0.57;0.57;;;18.90;57.70;;;;;;4965687;28;20058;-54
2021/04/11 09:51:39;;;;;;;1.05;0.30;;;19.00;58.30;;;;;;4975559;28;20049;-46
2021/04/11 09:54:20;;;;;;;1.02;0.50;;;19.00;58.40;;;;;;4950416;28;20109;-44
2021/04/11 09:57:22;;;;;;;0.40;0.40;;;19.10;57.80;;;;;;4963845;28;20039;-46
2021/04/11 09:59:56;;;;;;;0.40;0.40;;;19.20;58.20;;;;;;4932227;29;20035;-44
2021/04/11 10:02:29;;;;;;;0.32;0.30;;;19.10;57.50;;;;;;4944745;29;20387;-45
2021/04/11 10:05:15;;;;;;;0.50;0.50;;;19.00;57.80;;;;;;4930110;29;20031;-49
2021/04/11 10:07:43;;;;;;;1.88;0.38;;;19.10;58.70;;;;;;4929070;29;20156;-49
2021/04/11 10:10:46;;;;;;;0.43;0.30;;;19.10;57.30;;;;;;4962367;28;20039;-50
2021/04/11 10:13:21;;;;;;;1.17;0.52;;;19.10;57.40;;;;;;4965125;28;21903;-49
2021/04/11 10:16:02;;;;;;;0.60;0.38;;;19.10;57.40;;;;;;4949655;28;20105;-49
2021/04/11 10:18:49;;;;;;;3.67;0.80;;;19.10;57.50;;;;;;4965793;28;20102;-50
2021/04/11 10:21:19;;;;;;;1.10;0.90;;;19.00;57.90;;;;;;4965374;28;20027;-45
2021/04/11 10:24:08;;;;;;;19.13;9.35;;;18.80;57.90;;;;;;4948354;28;20037;-38
2021/04/11 10:26:40;;;;;;;46.35;22.25;;;18.80;58.20;;;;;;4948336;28;20094;-39
2021/04/11 10:29:10;;;;;;;38.17;21.20;;;19.00;58.60;;;;;;4933775;28;20615;-41
2021/04/11 10:31:48;;;;;;;48.13;23.55;;;19.00;58.50;;;;;;4946627;28;20053;-42
2021/04/11 10:34:32;;;;;;;42.65;22.02;;;19.00;58.30;;;;;;4950158;28;20061;-51
2021/04/11 10:37:06;;;;;;;30.63;17.70;;;19.00;58.70;;;;;;5023864;28;20021;-41
2021/04/11 10:40:02;;;;;;;35.30;18.08;;;19.10;58.60;;;;;;5059332;28;20037;-50
2021/04/11 10:42:46;;;;;;;29.80;17.35;;;19.20;58.80;;;;;;5046361;28;20036;-49
2021/04/11 10:45:24;;;;;;;26.43;16.17;;;19.30;58.70;;;;;;4695171;28;9999809;-49
2021/04/11 10:48:28;;;;;;;25.23;15.02;;;19.30;59.00;;;;;;5027670;28;20658;-44
2021/04/11 10:51:32;;;;;;;25.48;15.60;;;19.40;58.30;;;;;;5047344;28;20040;-47
2021/04/11 10:54:23;;;;;;;26.17;15.23;;;19.30;58.50;;;;;;5030245;28;20053;-49
2021/04/11 10:57:00;;;;;;;29.83;14.25;;;19.30;58.50;;;;;;5042118;28;20315;-48
2021/04/11 10:59:35;;;;;;;21.75;14.23;;;19.30;58.40;;;;;;5043557;28;20025;-47
2021/04/11 11:02:37;;;;;;;29.38;15.15;;;19.20;58.50;;;;;;5044314;28;20036;-50
2021/04/11 11:05:15;;;;;;;26.27;15.93;;;19.30;58.50;;;;;;5048660;28;20025;-53
2021/04/11 11:08:05;;;;;;;27.40;15.30;;;19.30;58.70;;;;;;5046324;28;20033;-50
2021/04/11 11:10:55;;;;;;;28.13;15.57;;;19.20;58.90;;;;;;5023201;28;20132;-43
2021/04/11 11:13:44;;;;;;;33.90;15.57;;;19.20;58.90;;;;;;5031213;28;20525;-47
2021/04/11 11:16:19;;;;;;;31.23;15.27;;;19.20;59.20;;;;;;5027435;28;20098;-46
2021/04/11 11:19:05;;;;;;;25.15;14.52;;;19.10;59.60;;;;;;5042237;28;20032;-49
2021/04/11 11:21:39;;;;;;;26.67;15.52;;;19.10;60.30;;;;;;5040209;28;20037;-48
2021/04/11 11:24:19;;;;;;;28.20;14.60;;;19.10;60.40;;;;;;5042286;28;20025;-49
2021/04/11 11:26:57;;;;;;;26.92;15.52;;;19.10;60.00;;;;;;5016498;28;20049;-43
2021/04/11 11:29:35;;;;;;;26.70;14.95;;;19.10;60.80;;;;;;5031570;28;20040;-49
2021/04/11 11:32:00;;;;;;;25.67;13.43;;;19.10;60.90;;;;;;5040177;28;20087;-49
2021/04/11 11:34:58;;;;;;;22.48;13.18;;;19.10;60.70;;;;;;5044357;28;20041;-40
2021/04/11 11:37:33;;;;;;;22.85;13.10;;;19.10;60.80;;;;;;4678084;28;10000476;-47
2021/04/11 11:40:33;;;;;;;28.05;14.15;;;19.20;60.40;;;;;;5040937;28;20104;-37
2021/04/11 11:43:32;;;;;;;25.20;13.10;;;19.20;60.50;;;;;;4972356;28;20125;-46
2021/04/11 11:46:16;;;;;;;21.15;12.15;;;19.20;59.80;;;;;;4966892;28;20045;-36
2021/04/11 12:44:08;;;;;;;12.02;5.53;;;18.60;57.80;;;;;;5080524;28;20898;-34
2021/04/11 12:46:41;;;;;;;6.53;5.45;;;18.70;57.80;;;;;;5077522;28;20052;-34
2021/04/11 12:49:19;;;;;;;6.07;5.50;;;18.70;58.10;;;;;;5077625;28;20021;-34
2021/04/11 12:52:00;;;;;;;7.18;5.00;;;18.60;58.60;;;;;;5079678;28;20032;-35
2021/04/11 12:54:43;;;;;;;8.68;5.60;;;18.70;58.10;;;;;;5080148;28;20036;-33
2021/04/11 12:57:11;;;;;;;6.47;4.72;;;18.70;57.50;;;;;;5062856;28;20028;-44
2021/04/11 12:59:56;;;;;;;5.72;3.97;;;18.80;57.50;;;;;;5060720;28;20115;-41
2021/04/11 13:02:28;;;;;;;5.78;4.47;;;18.90;56.80;;;;;;5082104;28;20055;-41
2021/04/11 13:05:02;;;;;;;4.97;3.63;;;19.10;56.80;;;;;;5079516;28;20043;-43
2021/04/11 13:07:35;;;;;;;10.52;4.90;;;19.10;55.80;;;;;;5060577;28;20065;-44
2021/04/11 13:10:16;;;;;;;6.55;4.63;;;19.20;56.80;;;;;;5062941;28;20071;-42
2021/04/11 13:12:47;;;;;;;7.15;4.38;;;19.20;57.50;;;;;;5081076;28;20036;-41
2021/04/11 13:15:20;;;;;;;4.90;3.40;;;19.10;56.20;;;;;;5083089;28;20111;-46
2021/04/11 13:18:04;;;;;;;5.60;3.50;;;19.00;56.80;;;;;;5064771;28;20027;-45
2021/04/11 13:20:33;;;;;;;9.63;4.20;;;19.00;56.60;;;;;;5075202;28;20033;-43
2021/04/11 13:23:29;;;;;;;5.78;4.03;;;19.00;56.90;;;;;;5063729;28;20599;-43
2021/04/11 13:26:06;;;;;;;7.35;4.00;;;18.90;57.40;;;;;;5002329;28;20038;-40
2021/04/11 13:28:39;;;;;;;6.55;3.70;;;18.90;57.40;;;;;;5019949;28;20034;-45
2021/04/11 13:31:16;;;;;;;7.18;3.40;;;18.90;57.00;;;;;;5000998;28;20037;-42
2021/04/11 13:34:05;;;;;;;4.88;3.05;;;19.10;56.20;;;;;;5020006;28;20036;-43
2021/04/11 13:36:41;;;;;;;5.40;4.10;;;19.10;55.80;;;;;;5005139;28;20432;-40
2021/04/11 13:39:33;;;;;;;4.53;3.42;;;19.00;56.80;;;;;;5003596;28;20065;-44
2021/04/11 13:42:43;;;;;;;5.57;3.13;;;19.10;56.80;;;;;;5017964;28;20067;-44
2021/04/11 13:45:27;;;;;;;6.53;4.13;;;19.00;56.60;;;;;;4941582;29;20496;-44
2021/04/11 13:48:04;;;;;;;5.18;3.70;;;18.90;57.20;;;;;;4939786;28;20070;-45
2021/04/11 13:51:04;;;;;;;6.07;3.45;;;19.00;57.00;;;;;;4940530;28;20144;-44
2021/04/11 13:53:41;;;;;;;9.35;3.78;;;19.00;56.90;;;;;;4935514;29;20122;-38
2021/04/11 13:56:15;;;;;;;6.55;4.07;;;19.00;57.10;;;;;;4928784;29;20042;-44
2021/04/11 13:59:02;;;;;;;4.80;4.00;;;18.90;57.50;;;;;;4927128;29;20035;-45
2021/04/11 14:01:42;;;;;;;7.25;4.15;;;18.90;57.60;;;;;;4927404;29;20055;-45
2021/04/11 14:04:20;;;;;;;6.10;3.40;;;18.80;57.80;;;;;;4967926;28;20035;-43
2021/04/11 14:07:08;;;;;;;5.18;4.22;;;18.90;57.80;;;;;;4980484;28;20125;-45
2021/04/11 14:09:44;;;;;;;6.38;3.72;;;18.80;57.80;;;;;;4954923;28;20485;-40
2021/04/11 14:12:12;;;;;;;3.70;3.40;;;18.80;57.90;;;;;;4968759;28;20149;-45
2021/04/11 14:14:50;;;;;;;6.97;3.80;;;18.80;57.30;;;;;;4968137;28;20038;-48
2021/04/11 14:17:20;;;;;;;3.63;3.10;;;18.80;57.90;;;;;;4967574;28;20069;-43
2021/04/11 14:19:59;;;;;;;7.95;3.22;;;18.80;57.80;;;;;;5044718;28;20024;-47
2021/04/11 14:22:30;;;;;;;11.20;3.63;;;18.80;57.70;;;;;;5061336;28;20042;-46
2021/04/11 14:25:23;;;;;;;12.00;3.85;;;18.80;58.10;;;;;;5065958;28;20020;-44
2021/04/11 14:27:59;;;;;;;7.80;3.50;;;18.90;57.90;;;;;;5064359;28;20032;-46
2021/04/11 14:30:31;;;;;;;5.10;3.05;;;18.80;57.90;;;;;;5065037;28;20042;-44
2021/04/11 14:33:30;;;;;;;6.22;3.00;;;18.90;57.10;;;;;;5049629;28;20033;-43
2021/04/11 14:36:07;;;;;;;4.32;2.60;;;18.90;57.60;;;;;;5050048;28;20124;-41
2021/04/11 14:38:45;;;;;;;7.00;2.58;;;18.80;57.30;;;;;;5045276;28;20081;-43
2021/04/11 14:41:17;;;;;;;5.50;2.97;;;18.90;57.40;;;;;;5061974;28;20581;-43
2021/04/11 14:43:47;;;;;;;6.60;2.85;;;18.80;57.60;;;;;;5046789;28;20044;-46
2021/04/11 14:46:12;;;;;;;4.45;2.70;;;18.90;57.00;;;;;;5062478;28;20105;-45
2021/04/11 14:48:38;;;;;;;3.40;2.30;;;18.90;56.90;;;;;;5065028;28;20024;-45
2021/04/11 14:51:27;;;;;;;3.38;2.20;;;18.90;57.20;;;;;;5062003;28;20123;-44
2021/04/11 14:54:10;;;;;;;3.40;1.90;;;18.80;56.90;;;;;;5060371;28;20042;-44
2021/04/11 14:57:07;;;;;;;3.95;2.15;;;18.80;57.00;;;;;;5061917;28;20032;-44
2021/04/11 14:59:47;;;;;;;4.32;2.10;;;18.80;57.60;;;;;;5062569;28;20029;-45
2021/04/11 15:02:34;;;;;;;2.97;2.30;;;18.80;57.50;;;;;;5059007;28;20416;-44
2021/04/11 15:05:00;;;;;;;2.85;2.60;;;18.80;57.50;;;;;;5062751;28;20080;-41
2021/04/11 15:07:28;;;;;;;3.58;2.50;;;18.80;57.30;;;;;;5061705;28;20090;-44
2021/04/11 15:10:07;;;;;;;7.18;2.20;;;18.90;56.80;;;;;;5060670;28;20575;-42
2021/04/11 15:12:38;;;;;;;3.63;2.10;;;19.00;56.10;;;;;;5062544;28;20159;-44
2021/04/11 15:15:06;;;;;;;4.60;1.80;;;19.00;56.40;;;;;;5063750;28;20147;-45
2021/04/11 15:17:41;;;;;;;2.55;1.95;;;18.90;56.70;;;;;;4715354;28;10000252;-43
2021/04/11 15:20:18;;;;;;;3.10;1.90;;;19.00;56.40;;;;;;5060885;28;20021;-45
2021/04/11 15:23:12;;;;;;;3.72;1.77;;;18.90;56.50;;;;;;5041917;28;20032;-45
2021/04/11 15:25:53;;;;;;;3.10;1.88;;;19.00;56.10;;;;;;5061451;28;20040;-44
2021/04/11 15:28:39;;;;;;;9.07;2.00;;;19.00;57.10;;;;;;5060969;28;20934;-43
2021/04/11 15:31:24;;;;;;;2.05;1.85;;;18.90;57.20;;;;;;5062782;28;20097;-45
2021/04/11 15:34:02;;;;;;;3.80;1.95;;;18.90;56.80;;;;;;5062958;28;20563;-43
2021/04/11 15:36:49;;;;;;;2.20;1.80;;;19.00;56.40;;;;;;5062542;28;20024;-45
2021/04/11 15:39:47;;;;;;;2.15;1.80;;;19.00;56.00;;;;;;5062748;28;20699;-43
2021/04/11 15:42:27;;;;;;;2.63;1.60;;;19.00;56.90;;;;;;5062711;28;20052;-45
2021/04/11 15:44:53;;;;;;;1.80;1.58;;;19.00;55.70;;;;;;5062099;28;20032;-42
2021/04/11 15:47:53;;;;;;;2.13;1.42;;;19.10;55.70;;;;;;5061594;28;20039;-45
2021/04/11 15:50:22;;;;;;;1.85;1.52;;;19.00;55.10;;;;;;5043993;28;20028;-46
2021/04/11 15:52:58;;;;;;;2.03;1.30;;;19.00;54.90;;;;;;5061622;28;20033;-44
2021/04/11 15:55:51;;;;;;;3.85;1.17;;;19.00;55.60;;;;;;5059330;28;20545;-47
2021/04/11 15:58:34;;;;;;;1.65;1.15;;;19.00;55.00;;;;;;5061811;28;20043;-44
2021/04/11 16:01:02;;;;;;;1.17;1.08;;;19.10;54.60;;;;;;5059332;28;20385;-44
2021/04/11 16:03:53;;;;;;;2.80;1.73;;;19.20;54.10;;;;;;5060355;28;20029;-44
2021/04/11 16:06:39;;;;;;;2.20;1.20;;;19.10;53.80;;;;;;5062841;28;20071;-44
2021/04/11 16:09:27;;;;;;;1.42;1.00;;;19.10;53.40;;;;;;5061238;28;20036;-43
2021/04/11 16:12:08;;;;;;;1.30;1.10;;;19.10;53.00;;;;;;5059206;28;20055;-42
2021/04/11 16:15:05;;;;;;;2.28;1.20;;;19.10;52.60;;;;;;5060684;28;20494;-41
2021/04/11 16:17:43;;;;;;;2.92;1.23;;;19.10;52.40;;;;;;5060317;28;20040;-42
2021/04/11 16:20:14;;;;;;;2.70;1.30;;;19.20;52.20;;;;;;5060315;28;20032;-41
2021/04/11 16:23:01;;;;;;;1.38;1.10;;;19.00;52.90;;;;;;5060617;28;20055;-45
2021/04/11 16:25:38;;;;;;;5.30;1.10;;;18.90;51.80;;;;;;5062291;28;20081;-43
2021/04/11 16:28:26;;;;;;;1.98;0.98;;;18.90;51.10;;;;;;5043449;28;20033;-42
2021/04/11 16:31:10;;;;;;;2.03;1.00;;;18.90;50.50;;;;;;5042388;28;20597;-42
2021/04/11 16:33:51;;;;;;;1.95;0.60;;;19.00;50.80;;;;;;5059249;28;20032;-45
2021/04/11 16:36:44;;;;;;;5.20;1.15;;;19.20;50.30;;;;;;5061603;28;20103;-43
2021/04/11 16:39:32;;;;;;;0.82;0.80;;;19.00;50.70;;;;;;5060560;28;20032;-47
2021/04/11 16:42:16;;;;;;;1.30;0.80;;;18.90;50.20;;;;;;5059755;28;20044;-42
2021/04/11 16:45:00;;;;;;;1.67;1.05;;;18.90;49.60;;;;;;5059054;28;20097;-42
2021/04/11 16:47:48;;;;;;;0.88;0.82;;;19.00;49.60;;;;;;5044065;28;20024;-45
2021/04/11 16:50:21;;;;;;;1.50;0.70;;;18.90;49.70;;;;;;5058716;28;20033;-43
2021/04/11 16:52:49;;;;;;;3.35;0.70;;;18.90;49.70;;;;;;5060435;28;20119;-41
2021/04/11 16:55:46;;;;;;;3.13;0.80;;;18.90;49.90;;;;;;5060575;28;20526;-45
2021/04/11 16:58:20;;;;;;;1.13;0.85;;;19.00;50.30;;;;;;5056167;28;20032;-46
2021/04/11 17:00:59;;;;;;;1.10;0.88;;;19.00;49.50;;;;;;5058523;28;20095;-44
2021/04/11 17:03:57;;;;;;;0.80;0.80;;;19.00;49.50;;;;;;5060818;28;20731;-44
2021/04/11 17:06:23;;;;;;;2.15;0.85;;;19.00;50.40;;;;;;5059054;28;20485;-46
2021/04/11 17:09:06;;;;;;;0.77;0.77;;;19.00;50.40;;;;;;5060768;28;20043;-44
2021/04/11 17:11:52;;;;;;;1.17;0.80;;;19.00;50.30;;;;;;5043307;28;20032;-46
2021/04/11 17:14:43;;;;;;;3.92;1.17;;;19.00;49.60;;;;;;5045631;28;20031;-45
2021/04/11 17:17:25;;;;;;;1.10;1.00;;;19.00;50.00;;;;;;5061233;28;20032;-43
2021/04/11 17:20:03;;;;;;;3.03;0.80;;;19.10;48.30;;;;;;5059147;28;20340;-43
2021/04/11 17:22:40;;;;;;;2.17;0.85;;;19.10;49.40;;;;;;5062564;28;20043;-41
2021/04/11 17:25:17;;;;;;;1.65;0.70;;;19.10;50.00;;;;;;5060732;28;20099;-40
2021/04/11 17:28:04;;;;;;;2.45;0.77;;;19.10;50.70;;;;;;5060612;28;20058;-41
2021/04/11 17:30:30;;;;;;;0.95;0.70;;;19.10;50.90;;;;;;5066363;28;21593;-39
2021/04/11 17:33:23;;;;;;;1.10;0.70;;;19.20;51.10;;;;;;5067923;28;20451;-40
2021/04/11 17:36:11;;;;;;;3.15;0.85;;;19.30;51.20;;;;;;5067928;28;20536;-39
2021/04/11 17:38:46;;;;;;;1.88;0.80;;;19.30;51.20;;;;;;5067021;28;20074;-40
2021/04/11 17:41:48;;;;;;;6.85;0.93;;;19.40;51.50;;;;;;5065503;28;20032;-43
2021/04/11 17:44:27;;;;;;;3.92;0.85;;;19.40;51.90;;;;;;5067158;28;20058;-44
2021/04/11 17:47:20;;;;;;;1.35;0.88;;;19.40;52.20;;;;;;5048157;28;20809;-44
2021/04/11 17:49:51;;;;;;;1.40;0.65;;;19.40;52.40;;;;;;5062176;28;20029;-42
2021/04/11 17:52:44;;;;;;;1.45;0.90;;;19.40;53.00;;;;;;5064764;28;20024;-41
2021/04/11 17:55:26;;;;;;;0.77;0.68;;;19.30;53.10;;;;;;5065351;28;20393;-43
2021/04/11 17:58:00;;;;;;;3.80;0.90;;;19.30;53.10;;;;;;5049020;28;20064;-42
2021/04/11 18:00:39;;;;;;;1.98;0.60;;;19.40;53.30;;;;;;5066247;28;20032;-42
2021/04/11 18:03:16;;;;;;;1.98;0.80;;;19.50;53.00;;;;;;4699199;28;9999904;-42
2021/04/11 18:05:45;;;;;;;3.05;1.02;;;19.50;53.30;;;;;;5062093;28;20114;-42
2021/04/11 18:08:18;;;;;;;3.22;1.00;;;19.50;53.50;;;;;;5063356;28;20090;-40
2021/04/11 18:10:57;;;;;;;4.78;1.00;;;19.40;53.60;;;;;;5059233;28;20029;-43
2021/04/11 18:13:47;;;;;;;7.45;1.35;;;19.50;53.80;;;;;;5061901;28;20058;-39
2021/04/11 18:16:12;;;;;;;1.00;0.70;;;19.60;53.90;;;;;;5063431;28;20093;-43
2021/04/11 18:19:03;;;;;;;3.13;0.70;;;19.80;53.60;;;;;;5066639;28;20032;-42